Terminal Aerodrome Forecast
Issued by NWS Albany, NY

Home | Current Version | Previous Version | Text Only | Print | Product List | Glossary On
Versions: 1 2 3 4 5 6 7 8 9 10 11 12 13 14 15 16 17 18 19 20 21 22 23 24 25 26
741
FTUS41 KALY 251126
TAFGFL
TAF
KGFL 251126Z 2512/2612 VRB03KT P6SM SKC
      TEMPO 2512/2513 3SM BR FEW002
     FM251500 01009G15KT P6SM FEW050
     FM252300 36005KT P6SM SKC
     FM260200 00000KT P6SM SKC=

USA.gov is the U.S. government's official web portal to all federal, state and local government web resources and services.